createdAt,value
2023-04-05T00:01:08.173Z,101415.22
2023-04-05T00:03:35.940Z,101422.66
2023-04-05T00:06:05.869Z,101417.84
2023-04-05T00:08:33.586Z,101413.06
2023-04-05T00:11:02.646Z,101418.00
2023-04-05T00:13:30.858Z,101420.28
2023-04-05T00:16:01.041Z,101419.59
2023-04-05T00:18:34.624Z,101416.47
2023-04-05T00:21:02.594Z,101411.50
2023-04-05T00:23:40.196Z,101417.06
2023-04-05T00:26:09.536Z,101417.94
2023-04-05T00:28:37.203Z,101421.81
2023-04-05T00:31:05.914Z,101423.94
2023-04-05T00:33:33.662Z,101421.78
2023-04-05T00:36:11.230Z,101418.50
2023-04-05T00:38:39.168Z,101425.69
2023-04-05T00:41:07.180Z,101426.03
2023-04-05T00:43:37.412Z,101421.06
2023-04-05T00:46:06.170Z,101422.34
2023-04-05T00:48:34.509Z,101426.28
2023-04-05T00:51:03.243Z,101422.16
2023-04-05T00:53:32.454Z,101419.00
2023-04-05T00:56:01.333Z,101412.56
2023-04-05T00:58:29.542Z,101419.09
2023-04-05T01:01:06.608Z,101413.19
2023-04-05T01:03:37.432Z,101417.94
2023-04-05T01:06:21.884Z,101424.34
2023-04-05T01:08:57.287Z,101418.56
2023-04-05T01:11:27.308Z,101415.56
2023-04-05T01:14:00.220Z,101415.56
2023-04-05T01:16:30.011Z,101415.03
2023-04-05T01:18:57.645Z,101415.72
2023-04-05T01:21:46.544Z,101414.06
2023-04-05T01:24:27.549Z,101406.50
2023-04-05T01:27:04.111Z,101407.59
2023-04-05T01:30:04.560Z,101412.38
2023-04-05T01:35:41.857Z,101409.38
2023-04-05T01:38:13.552Z,101407.84
2023-04-05T01:40:42.930Z,101401.13
2023-04-05T01:43:15.138Z,101393.97
2023-04-05T01:45:45.718Z,101404.22
2023-04-05T01:48:14.033Z,101403.84
2023-04-05T01:50:41.909Z,101394.44
2023-04-05T01:53:10.519Z,101391.28
2023-04-05T01:55:38.269Z,101393.25
2023-04-05T01:58:06.168Z,101389.97
2023-04-05T02:00:34.415Z,101388.59
2023-04-05T02:03:03.586Z,101385.16
2023-04-05T02:05:31.396Z,101376.75
2023-04-05T02:07:59.542Z,101377.88
2023-04-05T02:10:27.272Z,101375.56
2023-04-05T02:12:54.932Z,101375.72
2023-04-05T02:15:23.133Z,101371.41
2023-04-05T02:17:53.999Z,101362.88
2023-04-05T02:20:23.829Z,101364.69
2023-04-05T02:22:51.786Z,101358.88
2023-04-05T02:25:19.604Z,101359.88
2023-04-05T02:27:47.938Z,101360.84
2023-04-05T02:30:16.176Z,101355.06
2023-04-05T02:32:44.702Z,101343.75
2023-04-05T02:35:13.723Z,101348.47
2023-04-05T02:37:42.801Z,101351.78
2023-04-05T02:40:15.830Z,101349.28
2023-04-05T02:42:43.566Z,101346.16
2023-04-05T02:45:11.852Z,101338.56
2023-04-05T02:47:40.176Z,101340.66
2023-04-05T02:50:08.944Z,101346.22
2023-04-05T02:52:37.579Z,101341.28
2023-04-05T02:55:08.348Z,101342.25
2023-04-05T02:57:36.027Z,101342.53
2023-04-05T03:00:05.006Z,101333.31
2023-04-05T03:02:33.345Z,101335.09
2023-04-05T03:05:02.371Z,101339.84
2023-04-05T03:07:30.479Z,101314.72
2023-04-05T03:09:58.624Z,101328.81
2023-04-05T03:12:27.708Z,101326.34
2023-04-05T03:14:55.628Z,101324.84
2023-04-05T03:17:23.930Z,101324.16
2023-04-05T03:19:51.626Z,101326.91
2023-04-05T03:22:19.301Z,101313.97
2023-04-05T03:24:47.959Z,101320.19
2023-04-05T03:27:15.655Z,101323.78
2023-04-05T03:29:44.727Z,101317.84
2023-04-05T03:32:14.441Z,101321.44
2023-04-05T03:34:41.934Z,101322.00
2023-04-05T03:37:09.579Z,101316.22
2023-04-05T03:39:38.207Z,101320.91
2023-04-05T03:42:05.999Z,101315.97
2023-04-05T03:44:33.696Z,101320.53
2023-04-05T03:47:03.247Z,101321.50
2023-04-05T03:49:31.090Z,101319.22
2023-04-05T03:51:58.747Z,101320.16
2023-04-05T03:54:26.982Z,101319.34
2023-04-05T03:56:54.743Z,101313.25
2023-04-05T03:59:22.503Z,101314.25
2023-04-05T04:01:50.800Z,101315.22
2023-04-05T04:04:19.945Z,101315.22
2023-04-05T04:06:47.690Z,101319.66
2023-04-05T04:09:16.261Z,101315.50
2023-04-05T04:11:43.914Z,101313.03
2023-04-05T04:14:11.596Z,101311.50
2023-04-05T04:16:39.838Z,101311.69
2023-04-05T04:19:07.536Z,101311.00
2023-04-05T04:21:40.115Z,101315.56
2023-04-05T04:24:08.016Z,101296.53
2023-04-05T04:26:37.468Z,101303.69
2023-04-05T04:29:07.213Z,101301.25
2023-04-05T04:31:34.728Z,101294.72
2023-04-05T04:34:05.524Z,101288.94
2023-04-05T04:36:39.826Z,101296.28
2023-04-05T04:39:10.304Z,101290.38
2023-04-05T04:41:38.188Z,101293.25
2023-04-05T04:44:06.667Z,101299.66
2023-04-05T04:46:42.953Z,101287.78
2023-04-05T04:49:11.273Z,101298.44
2023-04-05T04:51:39.183Z,101296.09
2023-04-05T04:54:08.384Z,101284.78
2023-04-05T04:56:36.824Z,101286.72
2023-04-05T04:59:04.494Z,101282.59
2023-04-05T05:01:33.999Z,101286.19
2023-04-05T05:04:02.416Z,101295.03
2023-04-05T05:06:31.302Z,101296.97
2023-04-05T05:08:58.962Z,101294.47
2023-04-05T05:11:29.452Z,101298.06
2023-04-05T05:13:57.106Z,101299.16
2023-04-05T05:16:24.884Z,101295.88
2023-04-05T05:18:53.209Z,101304.69
2023-04-05T05:21:21.039Z,101299.47
2023-04-05T05:23:49.156Z,101300.28
2023-04-05T05:26:17.320Z,101298.50
2023-04-05T05:28:48.818Z,101308.00
2023-04-05T05:31:18.221Z,101305.38
2023-04-05T05:33:49.477Z,101312.97
2023-04-05T05:36:17.164Z,101306.63
2023-04-05T05:38:45.406Z,101316.00
2023-04-05T05:41:13.281Z,101308.81
2023-04-05T05:43:40.944Z,101311.97
2023-04-05T05:46:10.505Z,101306.31
2023-04-05T05:48:38.203Z,101307.78
2023-04-05T05:51:09.764Z,101310.94
2023-04-05T05:53:38.023Z,101307.91
2023-04-05T05:56:06.499Z,101297.94
2023-04-05T05:58:34.325Z,101303.56
2023-04-05T06:01:04.300Z,101311.69
2023-04-05T06:03:33.759Z,101312.59
2023-04-05T06:06:03.125Z,101307.84
2023-04-05T06:08:31.402Z,101315.66
2023-04-05T06:10:59.408Z,101316.75
2023-04-05T06:13:27.171Z,101316.13
2023-04-05T06:15:55.199Z,101315.53
2023-04-05T06:18:22.899Z,101327.41
2023-04-05T06:20:51.930Z,101323.19
2023-04-05T06:23:20.188Z,101322.88
2023-04-05T06:25:47.867Z,101323.44
2023-04-05T06:28:15.615Z,101326.59
2023-04-05T06:30:43.766Z,101320.84
2023-04-05T06:33:11.516Z,101326.47
2023-04-05T06:35:39.287Z,101319.66
2023-04-05T06:38:08.729Z,101314.78
2023-04-05T06:40:36.396Z,101307.41
2023-04-05T06:43:04.128Z,101318.28
2023-04-05T06:45:32.264Z,101317.66
2023-04-05T06:47:59.997Z,101326.91
2023-04-05T06:50:27.735Z,101322.00
2023-04-05T06:52:56.059Z,101319.59
2023-04-05T06:55:25.116Z,101327.66
2023-04-05T06:57:52.841Z,101326.91
2023-04-05T07:00:21.583Z,101323.47
2023-04-05T07:02:49.292Z,101329.44
2023-04-05T07:05:17.062Z,101323.94
2023-04-05T07:07:45.771Z,101325.31
2023-04-05T07:10:13.462Z,101323.22
2023-04-05T07:12:42.543Z,101316.34
2023-04-05T07:15:11.548Z,101310.03
2023-04-05T07:17:39.262Z,101310.06
2023-04-05T07:20:08.364Z,101320.59
2023-04-05T07:22:36.587Z,101318.97
2023-04-05T07:25:05.558Z,101319.97
2023-04-05T07:27:33.228Z,101306.97
2023-04-05T07:30:02.833Z,101302.47
2023-04-05T07:32:30.505Z,101305.94
2023-04-05T07:34:58.224Z,101302.44
2023-04-05T07:37:27.441Z,101309.66
2023-04-05T07:39:55.132Z,101302.66
2023-04-05T07:42:22.866Z,101310.50
2023-04-05T07:44:50.718Z,101301.88
2023-04-05T07:47:19.922Z,101304.28
2023-04-05T07:49:47.580Z,101309.59
2023-04-05T07:52:15.469Z,101306.88
2023-04-05T07:54:43.920Z,101303.28
2023-04-05T07:57:11.715Z,101297.84
2023-04-05T07:59:39.857Z,101299.53
2023-04-05T08:02:14.620Z,101293.25
2023-04-05T08:04:44.409Z,101287.97
2023-04-05T08:07:12.076Z,101275.56
2023-04-05T08:09:39.753Z,101282.06
2023-04-05T08:12:07.909Z,101280.59
2023-04-05T08:14:35.602Z,101279.31
2023-04-05T08:17:03.256Z,101282.31
2023-04-05T08:19:31.137Z,101278.72
2023-04-05T08:22:00.157Z,101276.78
2023-04-05T08:24:27.885Z,101280.97
2023-04-05T08:26:56.320Z,101279.59
2023-04-05T08:29:24.158Z,101288.06
2023-04-05T08:31:51.850Z,101284.91
2023-04-05T08:34:19.663Z,101278.47
2023-04-05T08:36:48.846Z,101287.72
2023-04-05T08:39:18.671Z,101272.88
2023-04-05T08:41:51.565Z,101274.63
2023-04-05T08:44:23.617Z,101272.66
2023-04-05T08:46:52.209Z,101270.69
2023-04-05T08:49:19.896Z,101274.03
2023-04-05T08:51:47.584Z,101267.94
2023-04-05T08:54:15.837Z,101270.66
2023-04-05T08:56:48.865Z,101258.25
2023-04-05T08:59:19.671Z,101256.63
2023-04-05T09:01:49.179Z,101260.34
2023-04-05T09:04:19.842Z,101254.88
2023-04-05T09:06:50.670Z,101260.00
2023-04-05T09:09:21.695Z,101252.66
2023-04-05T09:11:51.408Z,101255.34
2023-04-05T09:14:20.142Z,101265.22
2023-04-05T09:16:48.280Z,101262.59
2023-04-05T09:19:16.180Z,101258.13
2023-04-05T09:22:00.983Z,101256.50
2023-04-05T09:24:36.687Z,101262.25
2023-04-05T09:27:10.814Z,101243.03
2023-04-05T09:29:39.802Z,101242.84
2023-04-05T09:32:09.402Z,101248.75
2023-04-05T09:34:38.144Z,101246.31
2023-04-05T09:37:14.492Z,101249.19
2023-04-05T09:39:42.851Z,101247.50
2023-04-05T09:42:15.259Z,101244.25
2023-04-05T09:44:57.365Z,101244.03
2023-04-05T09:47:30.821Z,101233.63
2023-04-05T09:49:59.038Z,101235.25
2023-04-05T09:52:28.909Z,101236.50
2023-04-05T09:54:59.300Z,101236.50
2023-04-05T09:57:29.480Z,101232.88
2023-04-05T09:59:57.314Z,101242.06
2023-04-05T10:02:26.619Z,101240.66
2023-04-05T10:04:54.326Z,101241.88
2023-04-05T10:07:22.056Z,101235.31
2023-04-05T10:09:50.197Z,101229.19
2023-04-05T10:12:27.434Z,101225.13
2023-04-05T10:14:57.176Z,101230.44
2023-04-05T10:17:28.463Z,101224.69
2023-04-05T10:20:10.914Z,101220.63
2023-04-05T10:22:49.979Z,101216.09
2023-04-05T10:25:25.607Z,101222.66
2023-04-05T10:27:56.654Z,101212.84
2023-04-05T10:30:35.590Z,101202.19
2023-04-05T10:33:12.786Z,101213.88
2023-04-05T10:35:51.345Z,101202.81
2023-04-05T10:38:24.291Z,101204.63
2023-04-05T10:40:55.861Z,101210.97
2023-04-05T10:43:26.669Z,101200.13
2023-04-05T10:45:56.763Z,101207.88
2023-04-05T10:48:35.666Z,101205.00
2023-04-05T10:51:04.457Z,101206.63
2023-04-05T10:53:33.626Z,101202.56
2023-04-05T10:56:02.866Z,101201.91
2023-04-05T10:58:31.481Z,101201.91
2023-04-05T11:01:01.636Z,101193.69
2023-04-05T11:03:49.422Z,101189.78
2023-04-05T11:06:22.061Z,101184.00
2023-04-05T11:08:51.787Z,101182.78
2023-04-05T11:11:20.265Z,101192.34
2023-04-05T11:13:49.888Z,101184.94
2023-04-05T11:16:19.115Z,101181.81
2023-04-05T11:18:47.958Z,101174.59
2023-04-05T11:21:23.812Z,101178.06
2023-04-05T11:24:06.657Z,101179.28
2023-04-05T11:29:50.655Z,101173.38
2023-04-05T11:32:20.003Z,101177.88
2023-04-05T11:35:00.180Z,101177.25
2023-04-05T11:37:56.775Z,101180.56
2023-04-05T11:40:29.665Z,101176.66
2023-04-05T11:43:02.965Z,101170.31
2023-04-05T11:45:32.507Z,101160.34
2023-04-05T11:48:05.986Z,101151.25
2023-04-05T11:50:34.229Z,101151.66
2023-04-05T11:53:12.907Z,101144.06
2023-04-05T11:55:42.383Z,101139.13
2023-04-05T11:58:14.168Z,101137.00
2023-04-05T12:00:42.318Z,101129.97
2023-04-05T12:03:14.500Z,101123.41
2023-04-05T12:05:49.801Z,101116.78
2023-04-05T12:08:18.177Z,101122.47
2023-04-05T12:10:45.977Z,101123.25
2023-04-05T12:13:13.639Z,101114.59
2023-04-05T12:15:42.083Z,101114.75
2023-04-05T12:18:17.486Z,101112.03
2023-04-05T12:20:45.822Z,101110.41
2023-04-05T12:23:13.777Z,101107.97
2023-04-05T12:25:42.793Z,101109.00
2023-04-05T12:28:11.671Z,101104.69
2023-04-05T12:30:49.620Z,101112.31
2023-04-05T12:33:28.365Z,101101.88
2023-04-05T12:35:56.135Z,101101.28
2023-04-05T12:38:27.075Z,101101.66
2023-04-05T12:40:55.353Z,101107.19
2023-04-05T12:43:24.157Z,101096.13
2023-04-05T12:45:56.653Z,101096.72
2023-04-05T12:48:26.038Z,101087.47
2023-04-05T12:50:55.032Z,101094.44
2023-04-05T12:53:25.609Z,101085.16
2023-04-05T12:55:54.986Z,101080.22
2023-04-05T12:58:24.424Z,101074.66
2023-04-05T13:00:52.365Z,101066.22
2023-04-05T13:03:21.694Z,101077.94
2023-04-05T13:05:50.923Z,101069.06
2023-04-05T13:08:19.601Z,101066.81
2023-04-05T13:10:48.028Z,101057.66
2023-04-05T13:13:16.333Z,101059.69
2023-04-05T13:15:44.910Z,101049.03
2023-04-05T13:18:14.764Z,101050.09
2023-04-05T13:20:43.284Z,101046.53
2023-04-05T13:23:12.969Z,101048.53
2023-04-05T13:25:41.494Z,101045.66
2023-04-05T13:28:10.426Z,101050.78
2023-04-05T13:30:38.682Z,101045.22
2023-04-05T13:33:06.488Z,101039.44
2023-04-05T13:35:34.350Z,101035.50
2023-04-05T13:38:04.628Z,101040.41
2023-04-05T13:40:33.954Z,101034.56
2023-04-05T13:43:01.635Z,101033.34
2023-04-05T13:45:29.745Z,101034.56
2023-04-05T13:47:57.437Z,101032.47
2023-04-05T13:50:25.661Z,101028.84
2023-04-05T13:52:53.649Z,101024.00
2023-04-05T13:55:21.370Z,101017.81
2023-04-05T13:57:50.422Z,101021.56
2023-04-05T14:00:18.855Z,101023.03
2023-04-05T14:02:46.993Z,101007.44
2023-04-05T14:05:15.503Z,101018.16
2023-04-05T14:07:43.574Z,101011.88
2023-04-05T14:10:12.448Z,101014.91
2023-04-05T14:12:40.547Z,101008.16
2023-04-05T14:15:10.491Z,100999.50
2023-04-05T14:17:38.348Z,100995.81
2023-04-05T14:20:08.105Z,100995.56
2023-04-05T14:22:36.458Z,100996.19
2023-04-05T14:25:04.803Z,100997.81
2023-04-05T14:27:32.592Z,100986.34
2023-04-05T14:30:02.658Z,100991.00
2023-04-05T14:32:33.704Z,100992.78
2023-04-05T14:35:01.800Z,100985.59
2023-04-05T14:37:29.951Z,100983.75
2023-04-05T14:39:57.749Z,100980.84
2023-04-05T14:42:34.137Z,100976.94
2023-04-05T14:45:10.938Z,100973.81
2023-04-05T14:47:39.932Z,100976.03
2023-04-05T14:50:08.712Z,100962.56
2023-04-05T14:52:37.732Z,100966.03
2023-04-05T14:55:06.186Z,100968.47
2023-04-05T14:57:33.976Z,100964.66
2023-04-05T15:00:02.301Z,100961.16
2023-04-05T15:02:30.304Z,100957.53
2023-04-05T15:05:00.471Z,100957.09
2023-04-05T15:07:29.324Z,100953.03
2023-04-05T15:09:57.153Z,100943.97
2023-04-05T15:12:25.145Z,100948.50
2023-04-05T15:14:54.852Z,100942.41
2023-04-05T15:17:22.747Z,100932.06
2023-04-05T15:19:50.598Z,100937.56
2023-04-05T15:22:21.291Z,100943.09
2023-04-05T15:24:49.102Z,100932.06
2023-04-05T15:27:16.886Z,100931.25
2023-04-05T15:29:45.195Z,100937.97
2023-04-05T15:32:13.000Z,100925.22
2023-04-05T15:34:41.489Z,100928.38
2023-04-05T15:37:10.782Z,100925.22
2023-04-05T15:39:39.970Z,100936.03
2023-04-05T15:42:07.819Z,100922.72
2023-04-05T15:44:36.308Z,100924.00
2023-04-05T15:47:04.180Z,100918.88
2023-04-05T15:49:32.110Z,100917.84
2023-04-05T15:52:00.937Z,100915.75
2023-04-05T15:54:28.780Z,100919.91
2023-04-05T15:56:58.112Z,100922.00
2023-04-05T15:59:26.287Z,100913.41
2023-04-05T16:01:54.186Z,100901.47
2023-04-05T16:04:23.156Z,100903.91
2023-04-05T16:06:51.799Z,100903.09
2023-04-05T16:09:19.577Z,100897.84
2023-04-05T16:11:47.731Z,100900.81
2023-04-05T16:14:17.657Z,100899.94
2023-04-05T16:16:53.820Z,100898.91
2023-04-05T16:19:23.607Z,100904.81
2023-04-05T16:21:52.820Z,100896.00
2023-04-05T16:24:21.210Z,100895.34
2023-04-05T16:26:49.721Z,100892.44
2023-04-05T16:29:18.974Z,100892.81
2023-04-05T16:31:47.913Z,100888.28
2023-04-05T16:34:16.099Z,100887.06
2023-04-05T16:36:43.987Z,100893.78
2023-04-05T16:39:11.790Z,100890.06
2023-04-05T16:41:40.067Z,100887.84
2023-04-05T16:44:07.930Z,100893.84
2023-04-05T16:46:37.211Z,100889.09
2023-04-05T16:49:05.818Z,100892.00
2023-04-05T16:51:35.271Z,100902.44
2023-04-05T16:54:03.424Z,100896.53
2023-04-05T16:56:31.765Z,100897.56
2023-04-05T16:58:59.800Z,100898.22
2023-04-05T17:01:28.758Z,100897.72
2023-04-05T17:04:00.376Z,100896.09
2023-04-05T17:06:28.969Z,100892.81
2023-04-05T17:08:56.911Z,100891.50
2023-04-05T17:11:25.416Z,100904.81
2023-04-05T17:13:53.210Z,100896.06
2023-04-05T17:16:21.775Z,100890.59
2023-04-05T17:18:50.296Z,100896.53
2023-04-05T17:21:20.055Z,100888.16
2023-04-05T17:23:47.913Z,100889.41
2023-04-05T17:26:16.565Z,100897.53
2023-04-05T17:28:44.505Z,100890.38
2023-04-05T17:31:12.522Z,100893.53
2023-04-05T17:33:41.256Z,100889.50
2023-04-05T17:36:09.374Z,100898.09
2023-04-05T17:38:38.755Z,100893.19
2023-04-05T17:41:07.208Z,100895.84
2023-04-05T17:43:35.690Z,100897.50
2023-04-05T17:46:04.157Z,100883.38
2023-04-05T17:48:33.318Z,100889.50
2023-04-05T17:51:06.113Z,100883.75
2023-04-05T17:53:34.408Z,100887.44
2023-04-05T17:56:04.103Z,100890.09
2023-04-05T17:58:32.432Z,100893.16
2023-04-05T18:01:00.864Z,100888.03
2023-04-05T18:03:29.138Z,100894.59
2023-04-05T18:05:57.357Z,100886.25
2023-04-05T18:08:26.975Z,100893.03
2023-04-05T18:10:58.356Z,100889.91
2023-04-05T18:13:29.055Z,100889.56
2023-04-05T18:15:57.635Z,100893.28
2023-04-05T18:18:26.293Z,100890.47
2023-04-05T18:20:55.931Z,100898.28
2023-04-05T18:23:24.917Z,100898.91
2023-04-05T18:25:53.810Z,100898.72
2023-04-05T18:28:23.644Z,100896.91
2023-04-05T18:30:53.183Z,100893.28
2023-04-05T18:33:22.467Z,100901.91
2023-04-05T18:35:51.919Z,100896.06
2023-04-05T18:38:19.834Z,100910.34
2023-04-05T18:40:47.674Z,100914.91
2023-04-05T18:43:15.983Z,100919.03
2023-04-05T18:45:43.851Z,100920.69
2023-04-05T18:48:13.438Z,100922.16
2023-04-05T18:50:41.754Z,100925.66
2023-04-05T18:53:09.772Z,100917.50
2023-04-05T18:55:37.898Z,100915.69
2023-04-05T18:58:06.515Z,100925.13
2023-04-05T19:00:34.994Z,100931.88
2023-04-05T19:03:02.896Z,100929.03
2023-04-05T19:05:32.797Z,100932.31
2023-04-05T19:08:00.633Z,100927.03
2023-04-05T19:10:28.503Z,100936.44
2023-04-05T19:12:57.075Z,100934.41
2023-04-05T19:15:24.881Z,100937.69
2023-04-05T19:17:52.732Z,100934.03
2023-04-05T19:20:20.960Z,100931.97
2023-04-05T19:22:50.294Z,100933.63
2023-04-05T19:25:18.312Z,100935.28
2023-04-05T19:27:46.880Z,100931.41
2023-04-05T19:30:14.870Z,100931.22
2023-04-05T19:32:42.743Z,100933.06
2023-04-05T19:35:11.756Z,100926.75
2023-04-05T19:37:39.654Z,100932.69
2023-04-05T19:40:10.414Z,100933.06
2023-04-05T19:42:38.794Z,100928.81
2023-04-05T19:45:09.297Z,100928.63
2023-04-05T19:47:44.950Z,100927.97
2023-04-05T19:50:40.163Z,100932.28
2023-04-05T19:53:09.221Z,100932.06
2023-04-05T19:55:39.904Z,100931.66
2023-04-05T19:58:09.194Z,100921.03
2023-04-05T20:00:38.829Z,100932.06
2023-04-05T20:03:29.224Z,100921.06
2023-04-05T20:06:05.312Z,100928.81
2023-04-05T20:08:36.427Z,100925.09
2023-04-05T20:11:11.740Z,100928.38
2023-04-05T20:13:43.418Z,100915.69
2023-04-05T20:16:15.567Z,100923.44
2023-04-05T20:18:47.821Z,100921.38
2023-04-05T20:21:16.877Z,100910.97
2023-04-05T20:23:45.838Z,100921.56
2023-04-05T20:26:16.727Z,100914.00
2023-04-05T20:28:53.276Z,100910.31
2023-04-05T20:31:23.614Z,100912.13
2023-04-05T20:33:54.523Z,100914.34
2023-04-05T20:36:24.601Z,100910.84
2023-04-05T20:38:52.801Z,100909.63
2023-04-05T20:41:21.961Z,100904.94
2023-04-05T20:43:49.926Z,100896.94
2023-04-05T20:46:17.772Z,100900.00
2023-04-05T20:48:46.777Z,100888.16
2023-04-05T20:51:16.419Z,100888.38
2023-04-05T20:54:10.995Z,100888.75
2023-04-05T20:56:41.146Z,100876.75
2023-04-05T20:59:09.249Z,100873.88
2023-04-05T21:01:37.865Z,100882.19
2023-04-05T21:04:06.708Z,100880.56
2023-04-05T21:06:36.559Z,100876.66
2023-04-05T21:09:04.772Z,100874.41
2023-04-05T21:11:32.785Z,100875.63
2023-04-05T21:14:01.919Z,100870.34
2023-04-05T21:16:29.718Z,100867.25
2023-04-05T21:18:57.732Z,100864.81
2023-04-05T21:21:26.145Z,100865.00
2023-04-05T21:23:53.967Z,100865.19
2023-04-05T21:26:22.885Z,100858.25
2023-04-05T21:28:50.688Z,100864.78
2023-04-05T21:31:19.864Z,100870.91
2023-04-05T21:33:48.201Z,100861.50
2023-04-05T21:36:15.984Z,100861.50
2023-04-05T21:38:43.769Z,100865.38
2023-04-05T21:41:12.194Z,100867.16
2023-04-05T21:43:40.022Z,100868.41
2023-04-05T21:46:07.883Z,100857.81
2023-04-05T21:48:37.786Z,100865.75
2023-04-05T21:51:05.601Z,100861.47
2023-04-05T21:53:33.369Z,100864.28
2023-04-05T21:56:01.693Z,100865.94
2023-04-05T21:58:29.471Z,100858.00
2023-04-05T22:00:59.539Z,100858.19
2023-04-05T22:03:28.102Z,100858.00
2023-04-05T22:05:57.311Z,100857.00
2023-04-05T22:08:26.662Z,100859.00
2023-04-05T22:10:55.109Z,100860.44
2023-04-05T22:13:22.912Z,100858.00
2023-04-05T22:15:50.723Z,100853.72
2023-04-05T22:18:18.952Z,100852.72
2023-04-05T22:20:46.732Z,100847.44
2023-04-05T22:23:15.986Z,100848.03
2023-04-05T22:25:44.425Z,100841.94
2023-04-05T22:28:12.216Z,100842.75
2023-04-05T22:30:44.148Z,100841.72
2023-04-05T22:33:14.232Z,100844.38
2023-04-05T22:35:42.763Z,100833.78
2023-04-05T22:38:10.793Z,100846.00
2023-04-05T22:40:40.509Z,100832.75
2023-04-05T22:43:08.095Z,100831.34
2023-04-05T22:45:36.003Z,100835.84
2023-04-05T22:48:04.392Z,100830.75
2023-04-05T22:50:32.485Z,100825.84
2023-04-05T22:53:00.289Z,100836.44
2023-04-05T22:55:28.591Z,100827.88
2023-04-05T22:57:57.757Z,100825.22
2023-04-05T23:00:25.558Z,100823.59
2023-04-05T23:02:54.659Z,100816.66
2023-04-05T23:05:22.538Z,100822.34
2023-04-05T23:07:50.416Z,100819.50
2023-04-05T23:10:19.162Z,100810.75
2023-04-05T23:12:47.688Z,100811.78
2023-04-05T23:15:16.936Z,100806.47
2023-04-05T23:17:45.563Z,100809.50
2023-04-05T23:20:13.600Z,100805.22
2023-04-05T23:22:41.463Z,100808.91
2023-04-05T23:25:10.995Z,100801.16
2023-04-05T23:27:38.804Z,100801.34
2023-04-05T23:30:07.974Z,100801.53
2023-04-05T23:32:37.573Z,100800.72
2023-04-05T23:35:05.923Z,100801.09
2023-04-05T23:37:33.852Z,100798.66
2023-04-05T23:40:02.249Z,100804.13
2023-04-05T23:42:30.055Z,100801.66
2023-04-05T23:44:57.893Z,100798.19
2023-04-05T23:47:26.194Z,100794.94
2023-04-05T23:49:55.777Z,100796.56
2023-04-05T23:52:23.576Z,100794.94
2023-04-05T23:54:51.821Z,100792.28
2023-04-05T23:57:19.593Z,100783.94
2023-04-05T23:59:47.405Z,100782.72
